sensor_id;sensor_type;location;lat;lon;timestamp;pressure;altitude;pressure_sealevel;temperature;humidity
47054;BME280;32811;52.382;5.270;2023-07-24T00:02:23;100439.84;;;17.28;100.00
47054;BME280;32811;52.382;5.270;2023-07-24T00:04:50;100431.19;;;17.26;100.00
47054;BME280;32811;52.382;5.270;2023-07-24T00:07:16;100427.59;;;17.30;100.00
47054;BME280;32811;52.382;5.270;2023-07-24T00:09:43;100416.47;;;17.25;100.00
47054;BME280;32811;52.382;5.270;2023-07-24T00:12:09;100418.28;;;17.21;100.00
47054;BME280;32811;52.382;5.270;2023-07-24T00:14:36;100418.44;;;17.16;100.00
47054;BME280;32811;52.382;5.270;2023-07-24T00:17:03;100430.75;;;17.11;100.00
47054;BME280;32811;52.382;5.270;2023-07-24T00:19:29;100439.41;;;17.13;100.00
47054;BME280;32811;52.382;5.270;2023-07-24T00:21:56;100425.44;;;17.14;100.00
47054;BME280;32811;52.382;5.270;2023-07-24T00:24:23;100426.25;;;17.16;100.00
47054;BME280;32811;52.382;5.270;2023-07-24T00:26:49;100420.75;;;17.26;100.00
47054;BME280;32811;52.382;5.270;2023-07-24T00:29:16;100416.06;;;17.37;100.00
47054;BME280;32811;52.382;5.270;2023-07-24T00:31:42;100414.53;;;17.31;100.00
47054;BME280;32811;52.382;5.270;2023-07-24T00:34:09;100406.84;;;17.27;100.00
47054;BME280;32811;52.382;5.270;2023-07-24T00:36:37;100407.13;;;17.17;100.00
47054;BME280;32811;52.382;5.270;2023-07-24T00:39:03;100402.03;;;17.13;100.00
47054;BME280;32811;52.382;5.270;2023-07-24T00:41:30;100395.16;;;17.10;100.00
47054;BME280;32811;52.382;5.270;2023-07-24T00:43:57;100393.72;;;17.00;100.00
47054;BME280;32811;52.382;5.270;2023-07-24T00:46:24;100390.47;;;16.92;100.00
47054;BME280;32811;52.382;5.270;2023-07-24T00:48:51;100395.50;;;16.98;100.00
47054;BME280;32811;52.382;5.270;2023-07-24T00:51:18;100405.16;;;16.94;100.00
47054;BME280;32811;52.382;5.270;2023-07-24T00:53:45;100397.56;;;16.87;100.00
47054;BME280;32811;52.382;5.270;2023-07-24T00:56:14;100391.56;;;16.85;100.00
47054;BME280;32811;52.382;5.270;2023-07-24T00:58:41;100386.53;;;16.77;100.00
47054;BME280;32811;52.382;5.270;2023-07-24T01:01:09;100372.75;;;16.72;100.00
47054;BME280;32811;52.382;5.270;2023-07-24T01:03:37;100372.09;;;16.65;100.00
47054;BME280;32811;52.382;5.270;2023-07-24T01:06:04;100375.56;;;16.66;100.00
47054;BME280;32811;52.382;5.270;2023-07-24T01:08:33;100380.78;;;16.66;100.00
47054;BME280;32811;52.382;5.270;2023-07-24T01:11:12;100370.28;;;16.67;100.00
47054;BME280;32811;52.382;5.270;2023-07-24T01:13:47;100381.53;;;16.69;100.00
47054;BME280;32811;52.382;5.270;2023-07-24T01:16:18;100374.69;;;16.65;100.00
47054;BME280;32811;52.382;5.270;2023-07-24T01:18:46;100357.53;;;16.58;100.00
47054;BME280;32811;52.382;5.270;2023-07-24T01:21:15;100366.13;;;16.62;100.00
47054;BME280;32811;52.382;5.270;2023-07-24T01:24:05;100375.38;;;16.72;100.00
47054;BME280;32811;52.382;5.270;2023-07-24T01:26:36;100370.84;;;16.80;100.00
47054;BME280;32811;52.382;5.270;2023-07-24T01:29:03;100366.44;;;16.82;100.00
47054;BME280;32811;52.382;5.270;2023-07-24T01:31:32;100345.75;;;16.74;100.00
47054;BME280;32811;52.382;5.270;2023-07-24T01:34:01;100366.41;;;16.84;100.00
47054;BME280;32811;52.382;5.270;2023-07-24T01:36:30;100335.56;;;16.67;100.00
47054;BME280;32811;52.382;5.270;2023-07-24T01:38:58;100353.66;;;16.71;100.00
47054;BME280;32811;52.382;5.270;2023-07-24T01:41:25;100372.44;;;16.86;100.00
47054;BME280;32811;52.382;5.270;2023-07-24T01:43:59;100339.66;;;16.75;100.00
47054;BME280;32811;52.382;5.270;2023-07-24T01:46:26;100338.59;;;16.83;100.00
47054;BME280;32811;52.382;5.270;2023-07-24T01:48:53;100326.41;;;16.83;100.00
47054;BME280;32811;52.382;5.270;2023-07-24T01:51:23;100331.84;;;16.75;100.00
47054;BME280;32811;52.382;5.270;2023-07-24T01:53:51;100346.25;;;16.89;100.00
47054;BME280;32811;52.382;5.270;2023-07-24T01:56:17;100333.50;;;16.79;100.00
47054;BME280;32811;52.382;5.270;2023-07-24T01:58:44;100337.75;;;16.82;100.00
47054;BME280;32811;52.382;5.270;2023-07-24T02:01:10;100338.63;;;16.81;100.00
47054;BME280;32811;52.382;5.270;2023-07-24T02:03:37;100347.34;;;16.82;100.00
47054;BME280;32811;52.382;5.270;2023-07-24T02:06:05;100355.06;;;16.85;100.00
47054;BME280;32811;52.382;5.270;2023-07-24T02:08:32;100340.34;;;16.84;100.00
47054;BME280;32811;52.382;5.270;2023-07-24T02:10:59;100332.78;;;16.73;100.00
47054;BME280;32811;52.382;5.270;2023-07-24T02:13:25;100350.81;;;16.80;100.00
47054;BME280;32811;52.382;5.270;2023-07-24T02:15:52;100348.19;;;16.82;100.00
47054;BME280;32811;52.382;5.270;2023-07-24T02:18:20;100333.53;;;16.76;100.00
47054;BME280;32811;52.382;5.270;2023-07-24T02:20:50;100340.34;;;16.84;100.00
47054;BME280;32811;52.382;5.270;2023-07-24T02:23:17;100341.16;;;16.86;100.00
47054;BME280;32811;52.382;5.270;2023-07-24T02:25:44;100325.69;;;16.79;100.00
47054;BME280;32811;52.382;5.270;2023-07-24T02:28:10;100327.34;;;16.82;100.00
47054;BME280;32811;52.382;5.270;2023-07-24T02:30:38;100324.03;;;16.75;100.00
47054;BME280;32811;52.382;5.270;2023-07-24T02:33:05;100325.00;;;16.71;100.00
47054;BME280;32811;52.382;5.270;2023-07-24T02:35:38;100325.09;;;16.68;100.00
47054;BME280;32811;52.382;5.270;2023-07-24T02:38:05;100320.84;;;16.66;100.00
47054;BME280;32811;52.382;5.270;2023-07-24T02:40:31;100319.16;;;16.63;100.00
47054;BME280;32811;52.382;5.270;2023-07-24T02:42:58;100311.34;;;16.63;100.00
47054;BME280;32811;52.382;5.270;2023-07-24T02:45:25;100301.00;;;16.60;100.00
47054;BME280;32811;52.382;5.270;2023-07-24T02:47:52;100313.69;;;16.72;100.00
47054;BME280;32811;52.382;5.270;2023-07-24T02:50:18;100306.06;;;16.66;100.00
47054;BME280;32811;52.382;5.270;2023-07-24T02:52:45;100304.25;;;16.68;100.00
47054;BME280;32811;52.382;5.270;2023-07-24T02:55:11;100295.84;;;16.58;100.00
47054;BME280;32811;52.382;5.270;2023-07-24T02:57:38;100303.44;;;16.66;100.00
47054;BME280;32811;52.382;5.270;2023-07-24T03:00:05;100311.81;;;16.77;100.00
47054;BME280;32811;52.382;5.270;2023-07-24T03:02:32;100292.13;;;16.67;100.00
47054;BME280;32811;52.382;5.270;2023-07-24T03:04:59;100323.25;;;16.72;100.00
47054;BME280;32811;52.382;5.270;2023-07-24T03:07:25;100328.31;;;16.76;100.00
47054;BME280;32811;52.382;5.270;2023-07-24T03:09:52;100331.03;;;16.73;100.00
47054;BME280;32811;52.382;5.270;2023-07-24T03:12:19;100319.78;;;16.71;100.00
47054;BME280;32811;52.382;5.270;2023-07-24T03:14:46;100319.94;;;16.67;100.00
47054;BME280;32811;52.382;5.270;2023-07-24T03:17:13;100313.16;;;16.61;100.00
47054;BME280;32811;52.382;5.270;2023-07-24T03:19:41;100316.69;;;16.58;100.00
47054;BME280;32811;52.382;5.270;2023-07-24T03:22:08;100302.94;;;16.53;100.00
47054;BME280;32811;52.382;5.270;2023-07-24T03:24:35;100301.88;;;16.60;100.00
47054;BME280;32811;52.382;5.270;2023-07-24T03:27:02;100289.81;;;16.56;100.00
47054;BME280;32811;52.382;5.270;2023-07-24T03:29:29;100301.94;;;16.59;100.00
47054;BME280;32811;52.382;5.270;2023-07-24T03:31:56;100302.16;;;16.50;100.00
47054;BME280;32811;52.382;5.270;2023-07-24T03:34:22;100312.56;;;16.51;100.00
47054;BME280;32811;52.382;5.270;2023-07-24T03:36:49;100303.88;;;16.51;100.00
47054;BME280;32811;52.382;5.270;2023-07-24T03:39:16;100291.69;;;16.53;100.00
47054;BME280;32811;52.382;5.270;2023-07-24T03:41:42;100270.16;;;16.46;100.00
47054;BME280;32811;52.382;5.270;2023-07-24T03:44:09;100282.13;;;16.52;100.00
47054;BME280;32811;52.382;5.270;2023-07-24T03:46:36;100277.03;;;16.49;100.00
47054;BME280;32811;52.382;5.270;2023-07-24T03:49:02;100289.13;;;16.50;100.00
47054;BME280;32811;52.382;5.270;2023-07-24T03:51:29;100281.31;;;16.50;100.00
47054;BME280;32811;52.382;5.270;2023-07-24T03:53:55;100276.25;;;16.45;100.00
47054;BME280;32811;52.382;5.270;2023-07-24T03:56:22;100282.38;;;16.44;100.00
47054;BME280;32811;52.382;5.270;2023-07-24T03:58:49;100290.06;;;16.49;100.00
47054;BME280;32811;52.382;5.270;2023-07-24T04:01:15;100290.91;;;16.49;100.00
47054;BME280;32811;52.382;5.270;2023-07-24T04:03:42;100300.47;;;16.49;100.00
47054;BME280;32811;52.382;5.270;2023-07-24T04:06:09;100292.56;;;16.52;100.00
47054;BME280;32811;52.382;5.270;2023-07-24T04:08:36;100293.50;;;16.49;100.00
47054;BME280;32811;52.382;5.270;2023-07-24T04:11:02;100295.25;;;16.49;100.00
47054;BME280;32811;52.382;5.270;2023-07-24T04:13:31;100277.94;;;16.48;100.00
47054;BME280;32811;52.382;5.270;2023-07-24T04:15:57;100291.75;;;16.50;100.00
47054;BME280;32811;52.382;5.270;2023-07-24T04:18:25;100286.38;;;16.56;100.00
47054;BME280;32811;52.382;5.270;2023-07-24T04:20:52;100273.41;;;16.54;100.00
47054;BME280;32811;52.382;5.270;2023-07-24T04:23:19;100277.69;;;16.55;100.00
47054;BME280;32811;52.382;5.270;2023-07-24T04:25:45;100273.34;;;16.56;100.00
47054;BME280;32811;52.382;5.270;2023-07-24T04:28:12;100286.28;;;16.59;100.00
47054;BME280;32811;52.382;5.270;2023-07-24T04:30:38;100291.41;;;16.62;100.00
47054;BME280;32811;52.382;5.270;2023-07-24T04:33:05;100287.88;;;16.63;100.00
47054;BME280;32811;52.382;5.270;2023-07-24T04:35:32;100276.69;;;16.61;100.00
47054;BME280;32811;52.382;5.270;2023-07-24T04:37:58;100269.78;;;16.58;100.00
47054;BME280;32811;52.382;5.270;2023-07-24T04:40:25;100277.66;;;16.57;100.00
47054;BME280;32811;52.382;5.270;2023-07-24T04:42:52;100287.31;;;16.53;100.00
47054;BME280;32811;52.382;5.270;2023-07-24T04:45:18;100288.03;;;16.58;100.00
47054;BME280;32811;52.382;5.270;2023-07-24T04:47:49;100281.94;;;16.59;100.00
47054;BME280;32811;52.382;5.270;2023-07-24T04:50:15;100282.06;;;16.55;100.00
47054;BME280;32811;52.382;5.270;2023-07-24T04:52:42;100277.06;;;16.47;100.00
47054;BME280;32811;52.382;5.270;2023-07-24T04:55:08;100284.81;;;16.50;100.00
47054;BME280;32811;52.382;5.270;2023-07-24T04:57:35;100279.72;;;16.46;100.00
47054;BME280;32811;52.382;5.270;2023-07-24T05:00:02;100285.66;;;16.51;100.00
47054;BME280;32811;52.382;5.270;2023-07-24T05:02:28;100286.53;;;16.50;100.00
47054;BME280;32811;52.382;5.270;2023-07-24T05:04:55;100282.41;;;16.43;100.00
47054;BME280;32811;52.382;5.270;2023-07-24T05:07:22;100283.25;;;16.43;100.00
47054;BME280;32811;52.382;5.270;2023-07-24T05:09:48;100286.72;;;16.44;100.00
47054;BME280;32811;52.382;5.270;2023-07-24T05:12:15;100283.31;;;16.42;100.00
47054;BME280;32811;52.382;5.270;2023-07-24T05:14:42;100287.56;;;16.46;100.00
47054;BME280;32811;52.382;5.270;2023-07-24T05:17:08;100264.41;;;16.35;100.00
47054;BME280;32811;52.382;5.270;2023-07-24T05:19:35;100293.16;;;16.62;100.00
47054;BME280;32811;52.382;5.270;2023-07-24T05:22:01;100287.69;;;16.71;100.00
47054;BME280;32811;52.382;5.270;2023-07-24T05:24:28;100291.84;;;16.76;100.00
47054;BME280;32811;52.382;5.270;2023-07-24T05:26:55;100293.13;;;16.93;100.00
47054;BME280;32811;52.382;5.270;2023-07-24T05:29:21;100289.31;;;17.03;100.00
47054;BME280;32811;52.382;5.270;2023-07-24T05:31:48;100289.84;;;17.14;100.00
47054;BME280;32811;52.382;5.270;2023-07-24T05:34:15;100277.38;;;17.24;100.00
47054;BME280;32811;52.382;5.270;2023-07-24T05:36:42;100288.31;;;17.35;100.00
47054;BME280;32811;52.382;5.270;2023-07-24T05:39:08;100277.22;;;17.29;100.00
47054;BME280;32811;52.382;5.270;2023-07-24T05:41:35;100284.75;;;17.38;100.00
47054;BME280;32811;52.382;5.270;2023-07-24T05:44:05;100263.75;;;17.41;100.00
47054;BME280;32811;52.382;5.270;2023-07-24T05:46:31;100276.44;;;17.78;100.00
47054;BME280;32811;52.382;5.270;2023-07-24T05:48:58;100272.63;;;17.89;100.00
47054;BME280;32811;52.382;5.270;2023-07-24T05:51:28;100275.97;;;17.92;100.00
47054;BME280;32811;52.382;5.270;2023-07-24T05:53:54;100271.16;;;17.80;100.00
47054;BME280;32811;52.382;5.270;2023-07-24T05:56:21;100277.75;;;17.65;100.00
47054;BME280;32811;52.382;5.270;2023-07-24T05:58:47;100248.88;;;17.45;100.00
47054;BME280;32811;52.382;5.270;2023-07-24T06:01:14;100276.72;;;17.71;100.00
47054;BME280;32811;52.382;5.270;2023-07-24T06:03:41;100273.44;;;17.64;100.00
47054;BME280;32811;52.382;5.270;2023-07-24T06:06:07;100278.44;;;17.70;100.00
47054;BME280;32811;52.382;5.270;2023-07-24T06:08:34;100278.44;;;17.70;100.00
47054;BME280;32811;52.382;5.270;2023-07-24T06:11:01;100268.16;;;17.66;100.00
47054;BME280;32811;52.382;5.270;2023-07-24T06:13:27;100283.56;;;17.73;100.00
47054;BME280;32811;52.382;5.270;2023-07-24T06:15:54;100271.22;;;17.78;100.00
47054;BME280;32811;52.382;5.270;2023-07-24T06:18:20;100273.47;;;17.89;100.00
47054;BME280;32811;52.382;5.270;2023-07-24T06:20:52;100270.66;;;17.95;100.00
47054;BME280;32811;52.382;5.270;2023-07-24T06:23:19;100271.69;;;18.15;100.00
47054;BME280;32811;52.382;5.270;2023-07-24T06:25:46;100272.84;;;18.31;100.00
47054;BME280;32811;52.382;5.270;2023-07-24T06:28:13;100263.41;;;18.51;100.00
47054;BME280;32811;52.382;5.270;2023-07-24T06:30:39;100264.16;;;18.54;100.00
47054;BME280;32811;52.382;5.270;2023-07-24T06:33:06;100257.50;;;19.13;100.00
47054;BME280;32811;52.382;5.270;2023-07-24T06:35:32;100259.44;;;19.93;100.00
47054;BME280;32811;52.382;5.270;2023-07-24T06:37:59;100259.50;;;20.31;100.00
47054;BME280;32811;52.382;5.270;2023-07-24T06:40:26;100264.16;;;20.64;100.00
47054;BME280;32811;52.382;5.270;2023-07-24T06:42:52;100262.16;;;21.05;100.00
47054;BME280;32811;52.382;5.270;2023-07-24T06:45:19;100265.44;;;21.10;100.00
47054;BME280;32811;52.382;5.270;2023-07-24T06:47:46;100269.91;;;21.45;100.00
47054;BME280;32811;52.382;5.270;2023-07-24T06:50:13;100264.34;;;21.51;100.00
47054;BME280;32811;52.382;5.270;2023-07-24T06:52:39;100268.13;;;21.80;100.00
47054;BME280;32811;52.382;5.270;2023-07-24T06:55:06;100269.06;;;21.79;100.00
47054;BME280;32811;52.382;5.270;2023-07-24T06:57:33;100268.88;;;21.82;100.00
47054;BME280;32811;52.382;5.270;2023-07-24T06:59:59;100272.63;;;22.11;100.00
47054;BME280;32811;52.382;5.270;2023-07-24T07:02:26;100275.44;;;22.08;100.00
47054;BME280;32811;52.382;5.270;2023-07-24T07:04:55;100281.63;;;21.01;100.00
47054;BME280;32811;52.382;5.270;2023-07-24T07:07:21;100285.59;;;20.34;100.00
47054;BME280;32811;52.382;5.270;2023-07-24T07:09:48;100269.56;;;20.40;100.00
47054;BME280;32811;52.382;5.270;2023-07-24T07:12:14;100293.88;;;20.04;100.00
47054;BME280;32811;52.382;5.270;2023-07-24T07:14:41;100288.13;;;19.76;100.00
47054;BME280;32811;52.382;5.270;2023-07-24T07:17:08;100284.41;;;19.59;100.00
47054;BME280;32811;52.382;5.270;2023-07-24T07:19:34;100281.81;;;19.59;100.00
47054;BME280;32811;52.382;5.270;2023-07-24T07:22:02;100287.38;;;19.52;100.00
47054;BME280;32811;52.382;5.270;2023-07-24T07:24:29;100281.31;;;19.29;100.00
47054;BME280;32811;52.382;5.270;2023-07-24T07:26:56;100274.84;;;19.38;100.00
47054;BME280;32811;52.382;5.270;2023-07-24T07:29:22;100285.09;;;20.05;100.00
47054;BME280;32811;52.382;5.270;2023-07-24T07:31:49;100288.78;;;20.01;100.00
47054;BME280;32811;52.382;5.270;2023-07-24T07:34:16;100271.47;;;20.56;100.00
47054;BME280;32811;52.382;5.270;2023-07-24T07:36:42;100272.88;;;21.37;100.00
47054;BME280;32811;52.382;5.270;2023-07-24T07:39:09;100262.16;;;21.76;100.00
47054;BME280;32811;52.382;5.270;2023-07-24T07:41:36;100270.25;;;22.24;100.00
47054;BME280;32811;52.382;5.270;2023-07-24T07:44:03;100267.25;;;22.30;100.00
47054;BME280;32811;52.382;5.270;2023-07-24T07:46:30;100260.91;;;22.50;100.00
47054;BME280;32811;52.382;5.270;2023-07-24T07:48:57;100261.09;;;22.79;100.00
47054;BME280;32811;52.382;5.270;2023-07-24T07:51:23;100262.09;;;22.11;100.00
47054;BME280;32811;52.382;5.270;2023-07-24T07:53:52;100265.44;;;21.47;100.00
47054;BME280;32811;52.382;5.270;2023-07-24T07:56:18;100257.16;;;21.01;100.00
47054;BME280;32811;52.382;5.270;2023-07-24T07:58:45;100259.13;;;21.14;100.00
47054;BME280;32811;52.382;5.270;2023-07-24T08:01:11;100250.88;;;21.74;100.00
47054;BME280;32811;52.382;5.270;2023-07-24T08:03:38;100262.81;;;21.47;100.00
47054;BME280;32811;52.382;5.270;2023-07-24T08:06:05;100258.88;;;21.36;100.00
47054;BME280;32811;52.382;5.270;2023-07-24T08:08:32;100252.88;;;21.87;100.00
47054;BME280;32811;52.382;5.270;2023-07-24T08:11:04;100241.16;;;22.59;100.00
47054;BME280;32811;52.382;5.270;2023-07-24T08:13:31;100237.28;;;22.66;100.00
47054;BME280;32811;52.382;5.270;2023-07-24T08:16:00;100237.00;;;23.03;100.00
47054;BME280;32811;52.382;5.270;2023-07-24T08:18:30;100237.19;;;23.30;100.00
47054;BME280;32811;52.382;5.270;2023-07-24T08:20:57;100242.13;;;23.36;100.00
47054;BME280;32811;52.382;5.270;2023-07-24T08:23:23;100237.72;;;23.51;100.00
47054;BME280;32811;52.382;5.270;2023-07-24T08:25:54;100250.38;;;23.74;100.00
47054;BME280;32811;52.382;5.270;2023-07-24T08:28:21;100245.31;;;23.71;100.00
47054;BME280;32811;52.382;5.270;2023-07-24T08:30:57;100244.13;;;24.06;100.00
47054;BME280;32811;52.382;5.270;2023-07-24T08:33:25;100230.56;;;24.12;100.00
47054;BME280;32811;52.382;5.270;2023-07-24T08:36:02;100241.19;;;24.24;100.00
47054;BME280;32811;52.382;5.270;2023-07-24T08:38:29;100247.41;;;24.52;100.00
47054;BME280;32811;52.382;5.270;2023-07-24T08:41:02;100258.16;;;24.20;100.00
47054;BME280;32811;52.382;5.270;2023-07-24T08:43:30;100261.63;;;23.78;100.00
47054;BME280;32811;52.382;5.270;2023-07-24T08:45:58;100255.06;;;23.69;100.00
47054;BME280;32811;52.382;5.270;2023-07-24T08:48:30;100243.59;;;23.70;100.00
47054;BME280;32811;52.382;5.270;2023-07-24T08:50:59;100248.91;;;24.13;100.00
47054;BME280;32811;52.382;5.270;2023-07-24T08:53:28;100237.81;;;24.08;100.00
47054;BME280;32811;52.382;5.270;2023-07-24T08:55:56;100231.13;;;24.02;100.00
47054;BME280;32811;52.382;5.270;2023-07-24T08:58:22;100241.81;;;24.42;100.00
47054;BME280;32811;52.382;5.270;2023-07-24T09:00:49;100238.84;;;24.76;100.00
47054;BME280;32811;52.382;5.270;2023-07-24T09:03:18;100236.13;;;24.77;100.00
47054;BME280;32811;52.382;5.270;2023-07-24T09:05:45;100248.16;;;23.97;100.00
47054;BME280;32811;52.382;5.270;2023-07-24T09:08:12;100251.06;;;24.07;100.00
47054;BME280;32811;52.382;5.270;2023-07-24T09:10:39;100237.47;;;24.56;100.00
47054;BME280;32811;52.382;5.270;2023-07-24T09:13:06;100223.69;;;24.23;100.00
47054;BME280;32811;52.382;5.270;2023-07-24T09:15:42;100236.38;;;24.45;100.00
47054;BME280;32811;52.382;5.270;2023-07-24T09:18:09;100224.78;;;24.48;100.00
47054;BME280;32811;52.382;5.270;2023-07-24T09:20:42;100231.00;;;24.33;100.00
47054;BME280;32811;52.382;5.270;2023-07-24T09:23:10;100227.38;;;24.62;100.00
47054;BME280;32811;52.382;5.270;2023-07-24T09:25:43;100230.91;;;24.34;100.00
47054;BME280;32811;52.382;5.270;2023-07-24T09:28:16;100228.41;;;23.90;100.00
47054;BME280;32811;52.382;5.270;2023-07-24T09:30:57;100231.03;;;23.15;100.00
47054;BME280;32811;52.382;5.270;2023-07-24T09:33:38;100224.53;;;22.74;100.00
47054;BME280;32811;52.382;5.270;2023-07-24T09:36:07;100230.88;;;22.54;100.00
47054;BME280;32811;52.382;5.270;2023-07-24T09:38:36;100232.34;;;22.11;100.00
47054;BME280;32811;52.382;5.270;2023-07-24T09:41:03;100237.94;;;22.38;100.00
47054;BME280;32811;52.382;5.270;2023-07-24T09:43:31;100236.16;;;22.05;100.00
47054;BME280;32811;52.382;5.270;2023-07-24T09:46:01;100222.78;;;21.92;100.00
47054;BME280;32811;52.382;5.270;2023-07-24T09:48:28;100217.78;;;21.88;100.00
47054;BME280;32811;52.382;5.270;2023-07-24T09:50:59;100226.31;;;21.75;100.00
47054;BME280;32811;52.382;5.270;2023-07-24T09:53:52;100217.75;;;21.72;100.00
47054;BME280;32811;52.382;5.270;2023-07-24T09:56:22;100213.72;;;21.82;100.00
47054;BME280;32811;52.382;5.270;2023-07-24T09:59:05;100210.81;;;21.71;100.00
47054;BME280;32811;52.382;5.270;2023-07-24T10:01:32;100207.69;;;21.80;100.00
47054;BME280;32811;52.382;5.270;2023-07-24T10:04:00;100200.19;;;22.39;100.00
47054;BME280;32811;52.382;5.270;2023-07-24T10:06:28;100213.91;;;22.92;100.00
47054;BME280;32811;52.382;5.270;2023-07-24T10:08:57;100212.16;;;23.23;100.00
47054;BME280;32811;52.382;5.270;2023-07-24T10:11:24;100206.53;;;23.29;100.00
47054;BME280;32811;52.382;5.270;2023-07-24T10:13:52;100204.97;;;23.85;100.00
47054;BME280;32811;52.382;5.270;2023-07-24T10:16:20;100212.53;;;24.33;100.00
47054;BME280;32811;52.382;5.270;2023-07-24T10:18:47;100212.03;;;23.85;100.00
47054;BME280;32811;52.382;5.270;2023-07-24T10:21:13;100218.00;;;23.72;100.00
47054;BME280;32811;52.382;5.270;2023-07-24T10:23:43;100215.88;;;23.79;100.00
47054;BME280;32811;52.382;5.270;2023-07-24T10:26:10;100208.50;;;23.25;100.00
47054;BME280;32811;52.382;5.270;2023-07-24T10:28:38;100216.66;;;23.20;100.00
47054;BME280;32811;52.382;5.270;2023-07-24T10:31:23;100209.88;;;23.47;100.00
47054;BME280;32811;52.382;5.270;2023-07-24T10:33:50;100201.38;;;23.86;100.00
47054;BME280;32811;52.382;5.270;2023-07-24T10:36:21;100206.56;;;23.88;100.00
47054;BME280;32811;52.382;5.270;2023-07-24T10:38:54;100209.00;;;23.46;100.00
47054;BME280;32811;52.382;5.270;2023-07-24T10:41:21;100218.06;;;23.56;100.00
47054;BME280;32811;52.382;5.270;2023-07-24T10:43:49;100206.94;;;23.96;100.00
47054;BME280;32811;52.382;5.270;2023-07-24T10:46:18;100201.97;;;23.61;100.00
47054;BME280;32811;52.382;5.270;2023-07-24T10:48:50;100192.16;;;24.08;100.00
47054;BME280;32811;52.382;5.270;2023-07-24T10:51:18;100202.75;;;24.35;100.00
47054;BME280;32811;52.382;5.270;2023-07-24T10:53:48;100204.03;;;24.42;100.00
47054;BME280;32811;52.382;5.270;2023-07-24T10:56:16;100197.72;;;24.44;100.00
47054;BME280;32811;52.382;5.270;2023-07-24T10:58:43;100184.66;;;24.29;100.00
47054;BME280;32811;52.382;5.270;2023-07-24T11:01:10;100197.31;;;24.23;100.00
47054;BME280;32811;52.382;5.270;2023-07-24T11:03:40;100185.91;;;24.09;100.00
47054;BME280;32811;52.382;5.270;2023-07-24T11:06:15;100193.56;;;23.99;100.00
47054;BME280;32811;52.382;5.270;2023-07-24T11:08:42;100202.69;;;23.34;100.00
47054;BME280;32811;52.382;5.270;2023-07-24T11:11:16;100202.69;;;22.88;100.00
47054;BME280;32811;52.382;5.270;2023-07-24T11:13:44;100203.00;;;23.14;100.00
47054;BME280;32811;52.382;5.270;2023-07-24T11:16:10;100205.84;;;23.70;100.00
47054;BME280;32811;52.382;5.270;2023-07-24T11:18:48;100201.56;;;23.83;100.00
47054;BME280;32811;52.382;5.270;2023-07-24T11:21:22;100196.34;;;24.24;100.00
47054;BME280;32811;52.382;5.270;2023-07-24T11:23:55;100193.59;;;24.82;100.00
47054;BME280;32811;52.382;5.270;2023-07-24T11:26:24;100180.47;;;23.97;100.00
47054;BME280;32811;52.382;5.270;2023-07-24T11:28:52;100205.06;;;23.09;100.00
47054;BME280;32811;52.382;5.270;2023-07-24T11:31:22;100202.63;;;22.74;100.00
47054;BME280;32811;52.382;5.270;2023-07-24T11:33:49;100215.19;;;22.37;100.00
47054;BME280;32811;52.382;5.270;2023-07-24T11:36:17;100208.16;;;22.22;100.00
47054;BME280;32811;52.382;5.270;2023-07-24T11:38:48;100206.13;;;22.58;100.00
47054;BME280;32811;52.382;5.270;2023-07-24T11:41:16;100212.31;;;23.19;100.00
47054;BME280;32811;52.382;5.270;2023-07-24T11:43:48;100200.75;;;23.52;100.00
47054;BME280;32811;52.382;5.270;2023-07-24T11:46:28;100213.66;;;23.57;100.00
47054;BME280;32811;52.382;5.270;2023-07-24T11:48:55;100215.50;;;23.85;100.00
47054;BME280;32811;52.382;5.270;2023-07-24T11:51:27;100215.19;;;23.75;100.00
47054;BME280;32811;52.382;5.270;2023-07-24T11:54:09;100214.94;;;23.50;100.00
47054;BME280;32811;52.382;5.270;2023-07-24T11:56:38;100213.25;;;23.49;100.00
47054;BME280;32811;52.382;5.270;2023-07-24T11:59:10;100221.88;;;23.06;100.00
47054;BME280;32811;52.382;5.270;2023-07-24T12:01:36;100203.91;;;22.67;100.00
47054;BME280;32811;52.382;5.270;2023-07-24T12:04:04;100222.41;;;22.81;100.00
47054;BME280;32811;52.382;5.270;2023-07-24T12:06:31;100222.28;;;22.98;100.00
47054;BME280;32811;52.382;5.270;2023-07-24T12:09:04;100223.59;;;23.07;100.00
47054;BME280;32811;52.382;5.270;2023-07-24T12:11:32;100234.97;;;23.38;100.00
47054;BME280;32811;52.382;5.270;2023-07-24T12:13:58;100231.53;;;23.52;100.00
47054;BME280;32811;52.382;5.270;2023-07-24T12:16:25;100241.34;;;23.34;100.00
47054;BME280;32811;52.382;5.270;2023-07-24T12:18:52;100224.56;;;23.20;100.00
47054;BME280;32811;52.382;5.270;2023-07-24T12:21:19;100228.34;;;23.31;100.00
47054;BME280;32811;52.382;5.270;2023-07-24T12:23:45;100217.91;;;23.29;100.00
47054;BME280;32811;52.382;5.270;2023-07-24T12:26:12;100226.88;;;23.41;100.00
47054;BME280;32811;52.382;5.270;2023-07-24T12:28:38;100225.75;;;23.15;100.00
47054;BME280;32811;52.382;5.270;2023-07-24T12:31:05;100226.47;;;23.03;100.00
47054;BME280;32811;52.382;5.270;2023-07-24T12:33:32;100216.25;;;23.12;100.00
47054;BME280;32811;52.382;5.270;2023-07-24T12:35:59;100222.97;;;23.18;100.00
47054;BME280;32811;52.382;5.270;2023-07-24T12:38:25;100235.53;;;23.43;100.00
47054;BME280;32811;52.382;5.270;2023-07-24T12:40:52;100244.06;;;23.32;100.00
47054;BME280;32811;52.382;5.270;2023-07-24T12:43:19;100245.06;;;22.99;100.00
47054;BME280;32811;52.382;5.270;2023-07-24T12:45:45;100235.31;;;22.70;100.00